EDW287L EGHQ-LSZH
Flight info
| Callsign | EDW287L |
|---|---|
| Flight time | 1h 30m |
| Altitude | 37000 |
| Route | DAWLY L620 SAM M140 DVR UL9 KONAN DCT KOK M150 DIK N852 SUTAL DCT GTQ DCT BAMEV DCT BLM |
| Aircraft | A320/M-SDE3FGHIRWY/LB1 |
Departure
| Time | 2026-04-26 09:51 |
|---|---|
| Airport | Cornwall Airport Newquay (EGHQ) |
Arrival
| Time | 2026-04-26 11:21 |
|---|---|
| Airport | Zürich Airport (LSZH) |
| Time | Latitude | Longitude | Altitude | Speed | Heading |
|---|---|---|---|---|---|
| 2026-04-26 09:15 | 50.44712 | -5.00522 | 327 ft | 0 kts | 120° |
| 2026-04-26 09:23 | 50.44712 | -5.00523 | 327 ft | 0 kts | 120° |
| 2026-04-26 09:45 | 50.44711 | -5.00522 | 329 ft | 1 kts | 120° |
| 2026-04-26 09:46 | 50.44674 | -5.00576 | 326 ft | 16 kts | 296° |
| 2026-04-26 09:46 | 50.44732 | -5.00733 | 326 ft | 16 kts | 301° |
| 2026-04-26 09:46 | 50.44784 | -5.00866 | 329 ft | 13 kts | 301° |
| 2026-04-26 09:46 | 50.44811 | -5.00999 | 331 ft | 13 kts | 266° |
| 2026-04-26 09:47 | 50.44778 | -5.01109 | 331 ft | 11 kts | 218° |
| 2026-04-26 09:47 | 50.44765 | -5.01122 | 330 ft | 0 kts | 208° |
| 2026-04-26 09:48 | 50.44763 | -5.01123 | 330 ft | 2 kts | 208° |
| 2026-04-26 09:48 | 50.44720 | -5.01159 | 331 ft | 7 kts | 208° |
| 2026-04-26 09:49 | 50.44683 | -5.01150 | 330 ft | 5 kts | 126° |
| 2026-04-26 09:49 | 50.44668 | -5.01101 | 332 ft | 5 kts | 118° |
| 2026-04-26 09:49 | 50.44664 | -5.01093 | 331 ft | 0 kts | 121° |
| 2026-04-26 09:50 | 50.44648 | -5.01051 | 330 ft | 19 kts | 121° |
| 2026-04-26 09:50 | 50.44439 | -5.00496 | 334 ft | 94 kts | 120° |
| 2026-04-26 09:50 | 50.44000 | -4.99331 | 351 ft | 149 kts | 122° |
| 2026-04-26 09:50 | 50.43447 | -4.97893 | 936 ft | 154 kts | 122° |
| 2026-04-26 09:51 | 50.42902 | -4.96443 | 1728 ft | 156 kts | 121° |
| 2026-04-26 09:51 | 50.42432 | -4.94802 | 2209 ft | 178 kts | 98° |
| 2026-04-26 09:51 | 50.42584 | -4.92745 | 2573 ft | 202 kts | 82° |
| 2026-04-26 09:51 | 50.42864 | -4.90435 | 2898 ft | 228 kts | 82° |
| 2026-04-26 09:52 | 50.43170 | -4.87851 | 3368 ft | 251 kts | 82° |
| 2026-04-26 09:52 | 50.43810 | -4.82243 | 5012 ft | 268 kts | 82° |
| 2026-04-26 09:52 | 50.44132 | -4.79343 | 5908 ft | 272 kts | 82° |
| 2026-04-26 09:53 | 50.44453 | -4.76388 | 6801 ft | 275 kts | 82° |
| 2026-04-26 09:53 | 50.44670 | -4.74353 | 7389 ft | 279 kts | 82° |
| 2026-04-26 09:53 | 50.45094 | -4.70343 | 8507 ft | 284 kts | 82° |
| 2026-04-26 09:53 | 50.45420 | -4.67245 | 9354 ft | 289 kts | 82° |
| 2026-04-26 09:54 | 50.45646 | -4.65097 | 9962 ft | 293 kts | 82° |
| 2026-04-26 09:54 | 50.45978 | -4.61939 | 10594 ft | 304 kts | 83° |
| 2026-04-26 09:54 | 50.46326 | -4.58578 | 10870 ft | 327 kts | 83° |
| 2026-04-26 09:54 | 50.46699 | -4.54938 | 11285 ft | 344 kts | 83° |
| 2026-04-26 09:55 | 50.47082 | -4.51205 | 11998 ft | 349 kts | 83° |
| 2026-04-26 09:55 | 50.47477 | -4.47402 | 12760 ft | 353 kts | 83° |
| 2026-04-26 09:55 | 50.47882 | -4.43522 | 13526 ft | 357 kts | 83° |
| 2026-04-26 09:55 | 50.48283 | -4.39641 | 14255 ft | 361 kts | 83° |
| 2026-04-26 09:56 | 50.48684 | -4.35725 | 14870 ft | 366 kts | 83° |
| 2026-04-26 09:56 | 50.49092 | -4.31694 | 15489 ft | 370 kts | 83° |
| 2026-04-26 09:56 | 50.49495 | -4.27677 | 16102 ft | 375 kts | 83° |
| 2026-04-26 09:56 | 50.49905 | -4.23592 | 16705 ft | 380 kts | 83° |
| 2026-04-26 09:57 | 50.50320 | -4.19465 | 17303 ft | 384 kts | 83° |
| 2026-04-26 09:57 | 50.50740 | -4.15283 | 17870 ft | 389 kts | 82° |
| 2026-04-26 09:57 | 50.51165 | -4.11048 | 18434 ft | 395 kts | 82° |
| 2026-04-26 09:57 | 50.51595 | -4.06754 | 18939 ft | 399 kts | 82° |
| 2026-04-26 09:58 | 50.52026 | -4.02423 | 19474 ft | 403 kts | 82° |
| 2026-04-26 09:58 | 50.52456 | -3.98059 | 20005 ft | 405 kts | 82° |
| 2026-04-26 09:58 | 50.52886 | -3.93659 | 20525 ft | 408 kts | 82° |
| 2026-04-26 09:58 | 50.53320 | -3.89206 | 21044 ft | 411 kts | 82° |
| 2026-04-26 09:59 | 50.53755 | -3.84745 | 21545 ft | 414 kts | 82° |
| 2026-04-26 09:59 | 50.54216 | -3.80011 | 22081 ft | 417 kts | 82° |
| 2026-04-26 09:59 | 50.54644 | -3.75591 | 22564 ft | 420 kts | 82° |
| 2026-04-26 09:59 | 50.55087 | -3.71024 | 23034 ft | 423 kts | 82° |
| 2026-04-26 10:00 | 50.55530 | -3.66413 | 23476 ft | 427 kts | 82° |
| 2026-04-26 10:00 | 50.55972 | -3.61785 | 23910 ft | 430 kts | 82° |
| 2026-04-26 10:00 | 50.56414 | -3.57100 | 24300 ft | 433 kts | 83° |
| 2026-04-26 10:00 | 50.56855 | -3.52396 | 24706 ft | 436 kts | 83° |
| 2026-04-26 10:01 | 50.57308 | -3.47674 | 25087 ft | 438 kts | 81° |
| 2026-04-26 10:01 | 50.58069 | -3.42958 | 25463 ft | 441 kts | 73° |
| 2026-04-26 10:01 | 50.58974 | -3.38258 | 25839 ft | 444 kts | 74° |
| 2026-04-26 10:01 | 50.59866 | -3.33583 | 26197 ft | 446 kts | 74° |
| 2026-04-26 10:02 | 50.60763 | -3.28840 | 26596 ft | 448 kts | 74° |
| 2026-04-26 10:02 | 50.61651 | -3.24117 | 26967 ft | 450 kts | 74° |
| 2026-04-26 10:02 | 50.62536 | -3.19379 | 27338 ft | 452 kts | 74° |
| 2026-04-26 10:02 | 50.63427 | -3.14611 | 27692 ft | 455 kts | 74° |
| 2026-04-26 10:03 | 50.64337 | -3.09740 | 28055 ft | 457 kts | 74° |
| 2026-04-26 10:03 | 50.65220 | -3.05017 | 28402 ft | 459 kts | 74° |
| 2026-04-26 10:03 | 50.66126 | -3.00168 | 28735 ft | 462 kts | 74° |
| 2026-04-26 10:03 | 50.67034 | -2.95278 | 29076 ft | 464 kts | 74° |
| 2026-04-26 10:04 | 50.67941 | -2.90377 | 29397 ft | 466 kts | 74° |
| 2026-04-26 10:04 | 50.68847 | -2.85453 | 29719 ft | 469 kts | 74° |
| 2026-04-26 10:04 | 50.69754 | -2.80504 | 30030 ft | 471 kts | 74° |
| 2026-04-26 10:04 | 50.70666 | -2.75522 | 30303 ft | 473 kts | 74° |
| 2026-04-26 10:05 | 50.71583 | -2.70516 | 30552 ft | 476 kts | 74° |
| 2026-04-26 10:05 | 50.72506 | -2.65469 | 30808 ft | 478 kts | 74° |
| 2026-04-26 10:05 | 50.73427 | -2.60411 | 31067 ft | 480 kts | 74° |
| 2026-04-26 10:05 | 50.74346 | -2.55340 | 31306 ft | 482 kts | 74° |
| 2026-04-26 10:06 | 50.75271 | -2.50239 | 31579 ft | 483 kts | 74° |
| 2026-04-26 10:06 | 50.76198 | -2.45128 | 31929 ft | 482 kts | 74° |
| 2026-04-26 10:06 | 50.77122 | -2.40035 | 32284 ft | 481 kts | 74° |
| 2026-04-26 10:06 | 50.78051 | -2.34867 | 32632 ft | 481 kts | 74° |
| 2026-04-26 10:07 | 50.78971 | -2.29701 | 32959 ft | 481 kts | 74° |
| 2026-04-26 10:07 | 50.79873 | -2.24614 | 33288 ft | 481 kts | 74° |
| 2026-04-26 10:07 | 50.80776 | -2.19532 | 33618 ft | 480 kts | 74° |
| 2026-04-26 10:07 | 50.81679 | -2.14446 | 33951 ft | 480 kts | 74° |
| 2026-04-26 10:08 | 50.82579 | -2.09364 | 34285 ft | 480 kts | 74° |
| 2026-04-26 10:08 | 50.83175 | -2.05988 | 34481 ft | 479 kts | 74° |
| 2026-04-26 10:08 | 50.84082 | -2.00838 | 34781 ft | 479 kts | 74° |
| 2026-04-26 10:08 | 50.84984 | -1.95697 | 35087 ft | 478 kts | 74° |
| 2026-04-26 10:09 | 50.85875 | -1.90616 | 35379 ft | 477 kts | 74° |
| 2026-04-26 10:09 | 50.86761 | -1.85559 | 35680 ft | 476 kts | 73° |
| 2026-04-26 10:09 | 50.87644 | -1.80483 | 35996 ft | 474 kts | 73° |
| 2026-04-26 10:09 | 50.88512 | -1.75476 | 36277 ft | 473 kts | 73° |
| 2026-04-26 10:10 | 50.89431 | -1.70163 | 36563 ft | 472 kts | 74° |
| 2026-04-26 10:10 | 50.90249 | -1.65405 | 36809 ft | 471 kts | 74° |
| 2026-04-26 10:10 | 50.91116 | -1.60363 | 37061 ft | 471 kts | 74° |
| 2026-04-26 10:10 | 50.91983 | -1.55327 | 37261 ft | 471 kts | 73° |
| 2026-04-26 10:11 | 50.93701 | -1.45319 | 37302 ft | 469 kts | 74° |
| 2026-04-26 10:11 | 50.95399 | -1.35191 | 37304 ft | 469 kts | 77° |
| 2026-04-26 10:12 | 50.96381 | -1.24848 | 37300 ft | 469 kts | 81° |
| 2026-04-26 10:12 | 50.97280 | -1.14594 | 37303 ft | 469 kts | 81° |
| 2026-04-26 10:13 | 50.98172 | -1.04356 | 37306 ft | 469 kts | 81° |
| 2026-04-26 10:13 | 50.99051 | -0.94032 | 37319 ft | 469 kts | 81° |
| 2026-04-26 10:14 | 50.99907 | -0.83792 | 37317 ft | 468 kts | 81° |
| 2026-04-26 10:14 | 51.00775 | -0.73521 | 37315 ft | 468 kts | 81° |
| 2026-04-26 10:15 | 51.01626 | -0.63257 | 37316 ft | 468 kts | 81° |
| 2026-04-26 10:15 | 51.02471 | -0.52881 | 37316 ft | 468 kts | 81° |
| 2026-04-26 10:16 | 51.03304 | -0.42630 | 37320 ft | 468 kts | 82° |
| 2026-04-26 10:16 | 51.04126 | -0.32368 | 37324 ft | 468 kts | 82° |
| 2026-04-26 10:17 | 51.04937 | -0.22091 | 37331 ft | 468 kts | 82° |
| 2026-04-26 10:17 | 51.05739 | -0.11815 | 37328 ft | 468 kts | 82° |
| 2026-04-26 10:18 | 51.06540 | -0.01520 | 37333 ft | 469 kts | 82° |
| 2026-04-26 10:18 | 51.07326 | 0.08750 | 37304 ft | 468 kts | 81° |
| 2026-04-26 10:19 | 51.08111 | 0.19043 | 37290 ft | 468 kts | 82° |
| 2026-04-26 10:19 | 51.08876 | 0.29318 | 37272 ft | 467 kts | 82° |
| 2026-04-26 10:20 | 51.09509 | 0.37862 | 37259 ft | 467 kts | 82° |
| 2026-04-26 10:20 | 51.10380 | 0.49866 | 37261 ft | 467 kts | 82° |
| 2026-04-26 10:21 | 51.11113 | 0.60137 | 37272 ft | 467 kts | 82° |
| 2026-04-26 10:21 | 51.11848 | 0.70396 | 37290 ft | 466 kts | 82° |
| 2026-04-26 10:22 | 51.12569 | 0.80729 | 37310 ft | 466 kts | 82° |
| 2026-04-26 10:22 | 51.13269 | 0.90994 | 37329 ft | 466 kts | 82° |
| 2026-04-26 10:23 | 51.13964 | 1.01180 | 37374 ft | 466 kts | 82° |
| 2026-04-26 10:23 | 51.14668 | 1.11513 | 37368 ft | 466 kts | 82° |
| 2026-04-26 10:24 | 51.15349 | 1.21794 | 37362 ft | 466 kts | 82° |
| 2026-04-26 10:24 | 51.16010 | 1.32015 | 37361 ft | 465 kts | 82° |
| 2026-04-26 10:25 | 51.15965 | 1.42331 | 37358 ft | 468 kts | 93° |
| 2026-04-26 10:25 | 51.15464 | 1.52664 | 37359 ft | 467 kts | 92° |
| 2026-04-26 10:26 | 51.14955 | 1.63064 | 37364 ft | 467 kts | 92° |
| 2026-04-26 10:26 | 51.14530 | 1.71641 | 37355 ft | 467 kts | 92° |
| 2026-04-26 10:27 | 51.14009 | 1.81960 | 37360 ft | 467 kts | 92° |
| 2026-04-26 10:27 | 51.13479 | 1.92266 | 37359 ft | 467 kts | 92° |
| 2026-04-26 10:28 | 51.12935 | 2.02590 | 37353 ft | 466 kts | 92° |
| 2026-04-26 10:28 | 51.12394 | 2.12872 | 37356 ft | 466 kts | 92° |
| 2026-04-26 10:29 | 51.11849 | 2.23143 | 37353 ft | 466 kts | 93° |
| 2026-04-26 10:29 | 51.11279 | 2.33411 | 37351 ft | 466 kts | 93° |
| 2026-04-26 10:30 | 51.10699 | 2.43671 | 37362 ft | 465 kts | 93° |
| 2026-04-26 10:30 | 51.10116 | 2.53931 | 37365 ft | 465 kts | 93° |
| 2026-04-26 10:31 | 51.09214 | 2.64126 | 37359 ft | 467 kts | 104° |
| 2026-04-26 10:31 | 51.06680 | 2.73640 | 37344 ft | 468 kts | 117° |
| 2026-04-26 10:32 | 51.03622 | 2.82783 | 37351 ft | 469 kts | 117° |
| 2026-04-26 10:32 | 51.00561 | 2.91936 | 37365 ft | 469 kts | 117° |
| 2026-04-26 10:33 | 50.97504 | 3.01082 | 37359 ft | 469 kts | 117° |
| 2026-04-26 10:33 | 50.94438 | 3.10213 | 37352 ft | 469 kts | 117° |
| 2026-04-26 10:34 | 50.91371 | 3.19320 | 37346 ft | 468 kts | 117° |
| 2026-04-26 10:34 | 50.88286 | 3.28416 | 37339 ft | 468 kts | 118° |
| 2026-04-26 10:35 | 50.85196 | 3.37497 | 37343 ft | 468 kts | 118° |
| 2026-04-26 10:35 | 50.82101 | 3.46557 | 37326 ft | 468 kts | 118° |
| 2026-04-26 10:36 | 50.79007 | 3.55624 | 37334 ft | 468 kts | 118° |
| 2026-04-26 10:36 | 50.75900 | 3.64660 | 37333 ft | 468 kts | 118° |
| 2026-04-26 10:37 | 50.72784 | 3.73686 | 37334 ft | 468 kts | 118° |
| 2026-04-26 10:37 | 50.69663 | 3.82710 | 37336 ft | 468 kts | 118° |
| 2026-04-26 10:38 | 50.66537 | 3.91701 | 37331 ft | 467 kts | 118° |
| 2026-04-26 10:38 | 50.63409 | 4.00670 | 37329 ft | 467 kts | 118° |
| 2026-04-26 10:39 | 50.60277 | 4.09631 | 37334 ft | 467 kts | 119° |
| 2026-04-26 10:39 | 50.57131 | 4.18592 | 37323 ft | 467 kts | 118° |
| 2026-04-26 10:40 | 50.53970 | 4.27562 | 37326 ft | 466 kts | 119° |
| 2026-04-26 10:40 | 50.50839 | 4.36420 | 37327 ft | 466 kts | 119° |
| 2026-04-26 10:41 | 50.47666 | 4.45375 | 37328 ft | 466 kts | 119° |
| 2026-04-26 10:41 | 50.44503 | 4.54265 | 37330 ft | 467 kts | 119° |
| 2026-04-26 10:42 | 50.41326 | 4.63153 | 37340 ft | 466 kts | 119° |
| 2026-04-26 10:42 | 50.38150 | 4.72020 | 37327 ft | 466 kts | 119° |
| 2026-04-26 10:43 | 50.34971 | 4.80868 | 37323 ft | 466 kts | 119° |
| 2026-04-26 10:43 | 50.31779 | 4.89695 | 37320 ft | 466 kts | 120° |
| 2026-04-26 10:44 | 50.28584 | 4.98510 | 37300 ft | 466 kts | 120° |
| 2026-04-26 10:44 | 50.25383 | 5.07322 | 37312 ft | 466 kts | 120° |
| 2026-04-26 10:45 | 50.22197 | 5.16084 | 37323 ft | 466 kts | 120° |
| 2026-04-26 10:45 | 50.18969 | 5.24916 | 37320 ft | 465 kts | 120° |
| 2026-04-26 10:46 | 50.15750 | 5.33670 | 37300 ft | 465 kts | 120° |
| 2026-04-26 10:46 | 50.12523 | 5.42415 | 37299 ft | 465 kts | 120° |
| 2026-04-26 10:47 | 50.09296 | 5.51158 | 37315 ft | 465 kts | 120° |
| 2026-04-26 10:47 | 50.06062 | 5.59883 | 37298 ft | 464 kts | 120° |
| 2026-04-26 10:48 | 50.02824 | 5.68575 | 37303 ft | 464 kts | 120° |
| 2026-04-26 10:48 | 49.99565 | 5.77303 | 37287 ft | 464 kts | 121° |
| 2026-04-26 10:49 | 49.96319 | 5.85961 | 37281 ft | 463 kts | 121° |
| 2026-04-26 10:49 | 49.93071 | 5.94605 | 37292 ft | 463 kts | 121° |
| 2026-04-26 10:50 | 49.90361 | 6.01777 | 37285 ft | 463 kts | 121° |
| 2026-04-26 10:50 | 49.85938 | 6.11108 | 37283 ft | 459 kts | 138° |
| 2026-04-26 10:51 | 49.77831 | 6.18615 | 37272 ft | 454 kts | 159° |
| 2026-04-26 10:52 | 49.72042 | 6.22524 | 37277 ft | 454 kts | 158° |
| 2026-04-26 10:52 | 49.66257 | 6.26443 | 37277 ft | 454 kts | 158° |
| 2026-04-26 10:53 | 49.60457 | 6.30331 | 37277 ft | 454 kts | 159° |
| 2026-04-26 10:53 | 49.54639 | 6.34089 | 37278 ft | 453 kts | 160° |
| 2026-04-26 10:54 | 49.45904 | 6.39644 | 37283 ft | 453 kts | 159° |
| 2026-04-26 10:54 | 49.40122 | 6.43513 | 37274 ft | 453 kts | 158° |
| 2026-04-26 10:55 | 49.34376 | 6.47498 | 37266 ft | 453 kts | 158° |
| 2026-04-26 10:55 | 49.29600 | 6.50790 | 37252 ft | 453 kts | 158° |
| 2026-04-26 10:56 | 49.22869 | 6.55347 | 37266 ft | 453 kts | 158° |
| 2026-04-26 10:56 | 49.17105 | 6.59221 | 37266 ft | 453 kts | 158° |
| 2026-04-26 10:57 | 49.12302 | 6.62456 | 37262 ft | 453 kts | 158° |
| 2026-04-26 10:57 | 49.06540 | 6.66329 | 37258 ft | 452 kts | 158° |
| 2026-04-26 10:58 | 49.00784 | 6.70187 | 37263 ft | 452 kts | 158° |
| 2026-04-26 10:58 | 48.94998 | 6.73936 | 37262 ft | 451 kts | 160° |
| 2026-04-26 10:59 | 48.89141 | 6.77370 | 37266 ft | 451 kts | 161° |
| 2026-04-26 10:59 | 48.83267 | 6.80738 | 37228 ft | 451 kts | 161° |
| 2026-04-26 11:00 | 48.77407 | 6.84169 | 37233 ft | 451 kts | 161° |
| 2026-04-26 11:00 | 48.71552 | 6.87639 | 37241 ft | 452 kts | 161° |
| 2026-04-26 11:01 | 48.65694 | 6.91093 | 37247 ft | 452 kts | 161° |
| 2026-04-26 11:01 | 48.59807 | 6.94552 | 36397 ft | 459 kts | 161° |
| 2026-04-26 11:02 | 48.56795 | 6.96312 | 35384 ft | 466 kts | 161° |
| 2026-04-26 11:02 | 48.53748 | 6.98088 | 34530 ft | 469 kts | 161° |
| 2026-04-26 11:02 | 48.50690 | 6.99870 | 33683 ft | 470 kts | 161° |
| 2026-04-26 11:02 | 48.47641 | 7.01651 | 32934 ft | 468 kts | 161° |
| 2026-04-26 11:03 | 48.44606 | 7.03422 | 32134 ft | 467 kts | 161° |
| 2026-04-26 11:03 | 48.41583 | 7.05184 | 31540 ft | 462 kts | 161° |
| 2026-04-26 11:03 | 48.38600 | 7.06918 | 30936 ft | 457 kts | 161° |
| 2026-04-26 11:03 | 48.35647 | 7.08629 | 30347 ft | 453 kts | 161° |
| 2026-04-26 11:04 | 48.32718 | 7.10322 | 29697 ft | 447 kts | 161° |
| 2026-04-26 11:04 | 48.29832 | 7.11990 | 29130 ft | 441 kts | 161° |
| 2026-04-26 11:04 | 48.26963 | 7.13644 | 28554 ft | 436 kts | 161° |
| 2026-04-26 11:04 | 48.24123 | 7.15282 | 27988 ft | 431 kts | 161° |
| 2026-04-26 11:05 | 48.21339 | 7.16885 | 27433 ft | 426 kts | 161° |
| 2026-04-26 11:05 | 48.18624 | 7.18447 | 26932 ft | 420 kts | 161° |
| 2026-04-26 11:05 | 48.15932 | 7.19988 | 26418 ft | 416 kts | 161° |
| 2026-04-26 11:05 | 48.13183 | 7.21572 | 25919 ft | 411 kts | 161° |
| 2026-04-26 11:06 | 48.10530 | 7.23107 | 25415 ft | 406 kts | 161° |
| 2026-04-26 11:06 | 48.07907 | 7.24621 | 24940 ft | 401 kts | 161° |
| 2026-04-26 11:06 | 48.05314 | 7.26109 | 24453 ft | 397 kts | 162° |
| 2026-04-26 11:06 | 48.02742 | 7.27577 | 23978 ft | 393 kts | 162° |
| 2026-04-26 11:07 | 48.00199 | 7.29030 | 23466 ft | 390 kts | 162° |
| 2026-04-26 11:07 | 47.97677 | 7.30469 | 22979 ft | 385 kts | 161° |
| 2026-04-26 11:07 | 47.95189 | 7.31885 | 22515 ft | 381 kts | 162° |
| 2026-04-26 11:07 | 47.92719 | 7.33288 | 22046 ft | 378 kts | 162° |
| 2026-04-26 11:08 | 47.90262 | 7.34680 | 21562 ft | 375 kts | 162° |
| 2026-04-26 11:08 | 47.87800 | 7.36075 | 21077 ft | 373 kts | 162° |
| 2026-04-26 11:08 | 47.85378 | 7.37449 | 20604 ft | 372 kts | 161° |
| 2026-04-26 11:08 | 47.82968 | 7.38816 | 20124 ft | 370 kts | 161° |
| 2026-04-26 11:09 | 47.80564 | 7.40180 | 19639 ft | 369 kts | 161° |
| 2026-04-26 11:09 | 47.78166 | 7.41540 | 19171 ft | 368 kts | 161° |
| 2026-04-26 11:09 | 47.75773 | 7.42896 | 18691 ft | 367 kts | 161° |
| 2026-04-26 11:09 | 47.73386 | 7.44249 | 18189 ft | 366 kts | 161° |
| 2026-04-26 11:10 | 47.71050 | 7.45571 | 17714 ft | 364 kts | 161° |
| 2026-04-26 11:10 | 47.68645 | 7.46928 | 17240 ft | 362 kts | 161° |
| 2026-04-26 11:10 | 47.66334 | 7.48387 | 16782 ft | 361 kts | 152° |
| 2026-04-26 11:10 | 47.64311 | 7.50569 | 16308 ft | 361 kts | 137° |
| 2026-04-26 11:11 | 47.62726 | 7.53448 | 15845 ft | 360 kts | 122° |
| 2026-04-26 11:11 | 47.61667 | 7.56846 | 15387 ft | 359 kts | 108° |
| 2026-04-26 11:11 | 47.60855 | 7.60379 | 14899 ft | 359 kts | 109° |
| 2026-04-26 11:11 | 47.60045 | 7.63865 | 14440 ft | 358 kts | 109° |
| 2026-04-26 11:12 | 47.59224 | 7.67357 | 13949 ft | 358 kts | 109° |
| 2026-04-26 11:12 | 47.58402 | 7.70840 | 13443 ft | 357 kts | 109° |
| 2026-04-26 11:12 | 47.57578 | 7.74323 | 12957 ft | 354 kts | 109° |
| 2026-04-26 11:12 | 47.56759 | 7.77779 | 12494 ft | 351 kts | 109° |
| 2026-04-26 11:13 | 47.55952 | 7.81187 | 12003 ft | 349 kts | 109° |
| 2026-04-26 11:13 | 47.55154 | 7.84568 | 11548 ft | 346 kts | 109° |
| 2026-04-26 11:13 | 47.54896 | 7.85657 | 11394 ft | 346 kts | 109° |
| 2026-04-26 11:13 | 47.53568 | 7.91254 | 10618 ft | 341 kts | 109° |
| 2026-04-26 11:14 | 47.52790 | 7.94532 | 10365 ft | 332 kts | 109° |
| 2026-04-26 11:14 | 47.52034 | 7.97708 | 10247 ft | 320 kts | 109° |
| 2026-04-26 11:14 | 47.51310 | 8.00744 | 10131 ft | 308 kts | 109° |
| 2026-04-26 11:14 | 47.50835 | 8.02746 | 10032 ft | 301 kts | 109° |
| 2026-04-26 11:15 | 47.50059 | 8.06628 | 9644 ft | 293 kts | 93° |
| 2026-04-26 11:15 | 47.50428 | 8.09511 | 9335 ft | 289 kts | 65° |
| 2026-04-26 11:15 | 47.51390 | 8.12182 | 8913 ft | 288 kts | 61° |
| 2026-04-26 11:15 | 47.52341 | 8.14777 | 8586 ft | 286 kts | 61° |
| 2026-04-26 11:16 | 47.53279 | 8.17347 | 8242 ft | 282 kts | 62° |
| 2026-04-26 11:16 | 47.54211 | 8.19897 | 7848 ft | 281 kts | 62° |
| 2026-04-26 11:16 | 47.55133 | 8.22412 | 7543 ft | 279 kts | 62° |
| 2026-04-26 11:16 | 47.56061 | 8.24937 | 7209 ft | 276 kts | 62° |
| 2026-04-26 11:17 | 47.56978 | 8.27429 | 6767 ft | 277 kts | 62° |
| 2026-04-26 11:17 | 47.57920 | 8.29999 | 5991 ft | 288 kts | 63° |
| 2026-04-26 11:17 | 47.58613 | 8.32831 | 5215 ft | 300 kts | 78° |
| 2026-04-26 11:17 | 47.58696 | 8.35948 | 4510 ft | 299 kts | 97° |
| 2026-04-26 11:18 | 47.58386 | 8.37913 | 4287 ft | 287 kts | 108° |
| 2026-04-26 11:18 | 47.57144 | 8.41223 | 3830 ft | 267 kts | 127° |
| 2026-04-26 11:18 | 47.56303 | 8.42519 | 3609 ft | 253 kts | 135° |
| 2026-04-26 11:18 | 47.55071 | 8.44193 | 3303 ft | 231 kts | 134° |
| 2026-04-26 11:19 | 47.53957 | 8.45726 | 3030 ft | 205 kts | 135° |
| 2026-04-26 11:19 | 47.52956 | 8.47102 | 2774 ft | 189 kts | 135° |
| 2026-04-26 11:19 | 47.52044 | 8.48349 | 2525 ft | 166 kts | 132° |
| 2026-04-26 11:19 | 47.51248 | 8.49438 | 2279 ft | 146 kts | 133° |
| 2026-04-26 11:20 | 47.50512 | 8.50448 | 2080 ft | 140 kts | 132° |
| 2026-04-26 11:20 | 47.49806 | 8.51417 | 1886 ft | 136 kts | 132° |
| 2026-04-26 11:20 | 47.49107 | 8.52365 | 1714 ft | 135 kts | 131° |
| 2026-04-26 11:20 | 47.48418 | 8.53309 | 1508 ft | 137 kts | 133° |
| 2026-04-26 11:21 | 47.47735 | 8.54252 | 1401 ft | 126 kts | 131° |
| 2026-04-26 11:21 | 47.47203 | 8.54985 | 1394 ft | 79 kts | 138° |
| 2026-04-26 11:21 | 47.46904 | 8.55391 | 1399 ft | 44 kts | 137° |
| 2026-04-26 11:21 | 47.46734 | 8.55602 | 1401 ft | 23 kts | 154° |
| 2026-04-26 11:22 | 47.46598 | 8.55679 | 1398 ft | 9 kts | 167° |
| 2026-04-26 11:22 | 47.46546 | 8.55696 | 1407 ft | 7 kts | 167° |
| 2026-04-26 11:22 | 47.46483 | 8.55716 | 1400 ft | 12 kts | 168° |
| 2026-04-26 11:22 | 47.46402 | 8.55746 | 1401 ft | 12 kts | 158° |
| 2026-04-26 11:23 | 47.46340 | 8.55814 | 1404 ft | 10 kts | 137° |
| 2026-04-26 11:23 | 47.46296 | 8.55873 | 1405 ft | 7 kts | 138° |
| 2026-04-26 11:23 | 47.46252 | 8.55893 | 1399 ft | 9 kts | 201° |
| 2026-04-26 11:23 | 47.46232 | 8.55820 | 1400 ft | 7 kts | 271° |
| 2026-04-26 11:24 | 47.46236 | 8.55755 | 1398 ft | 6 kts | 276° |
| 2026-04-26 11:24 | 47.46240 | 8.55697 | 1403 ft | 7 kts | 276° |
| 2026-04-26 11:24 | 47.46246 | 8.55628 | 1397 ft | 7 kts | 276° |
| 2026-04-26 11:24 | 47.46251 | 8.55562 | 1402 ft | 6 kts | 276° |
| 2026-04-26 11:25 | 47.46255 | 8.55497 | 1401 ft | 6 kts | 276° |
| 2026-04-26 11:25 | 47.46257 | 8.55442 | 1396 ft | 4 kts | 264° |
| 2026-04-26 11:25 | 47.46256 | 8.55438 | 1396 ft | 0 kts | 264° |
| 2026-04-26 11:25 | 47.46252 | 8.55419 | 1404 ft | 3 kts | 239° |
| 2026-04-26 11:26 | 47.46238 | 8.55407 | 1400 ft | 2 kts | 205° |
| 2026-04-26 11:26 | 47.46224 | 8.55403 | 1398 ft | 1 kts | 188° |
| 2026-04-26 11:26 | 47.46218 | 8.55402 | 1397 ft | 2 kts | 186° |
| 2026-04-26 11:26 | 47.46200 | 8.55399 | 1397 ft | 3 kts | 186° |
| 2026-04-26 11:27 | 47.46184 | 8.55396 | 1397 ft | 2 kts | 186° |
| 2026-04-26 11:27 | 47.46182 | 8.55396 | 1397 ft | 0 kts | 186° |